Time;durP1;ratioP1;P1;durP2;ratioP2;P2;SDS_P1;SDS_P2;PMS_P1;PMS_P2;Temp;Humidity;BMP_temperature;BMP_pressure;BME280_temperature;BME280_humidity;BME280_pressure;Samples;Min_cycle;Max_cycle;Signal;HPM_P1;HPM_P2
2022/07/25 00:00:28;;;;;;;1.80;1.45;;;20.70;63.70;;;;;;4936036;28;20070;-67
2022/07/25 00:02:54;;;;;;;1.38;1.27;;;20.70;63.90;;;;;;4942956;28;20487;-67
2022/07/25 00:05:20;;;;;;;2.63;1.20;;;20.70;63.60;;;;;;4940838;28;20047;-67
2022/07/25 00:07:46;;;;;;;2.13;1.50;;;20.70;63.70;;;;;;4942755;28;20035;-67
2022/07/25 00:10:12;;;;;;;1.75;1.30;;;20.70;63.60;;;;;;4938235;28;20046;-67
2022/07/25 00:12:38;;;;;;;1.73;1.10;;;20.70;63.70;;;;;;4937719;28;20023;-67
2022/07/25 00:15:04;;;;;;;1.27;1.17;;;20.70;63.70;;;;;;4937407;28;20126;-67
2022/07/25 00:17:30;;;;;;;2.53;1.50;;;20.70;63.70;;;;;;4935825;29;20398;-67
2022/07/25 00:19:56;;;;;;;1.98;1.30;;;20.70;63.80;;;;;;4935499;28;20086;-67
2022/07/25 00:22:21;;;;;;;1.67;1.58;;;20.70;63.30;;;;;;4941154;28;20480;-66
2022/07/25 00:24:47;;;;;;;1.80;1.50;;;20.60;63.20;;;;;;4941274;28;20042;-67
2022/07/25 00:27:13;;;;;;;1.67;1.10;;;20.60;63.20;;;;;;4938184;28;20475;-67
2022/07/25 00:29:39;;;;;;;1.67;1.40;;;20.60;63.20;;;;;;4939277;28;20050;-67
2022/07/25 00:32:05;;;;;;;1.35;1.25;;;20.60;63.00;;;;;;4937248;28;20039;-67
2022/07/25 00:34:31;;;;;;;2.13;1.20;;;20.60;63.10;;;;;;4937911;28;20089;-67
2022/07/25 00:36:56;;;;;;;1.13;1.10;;;20.60;63.00;;;;;;4939805;29;20040;-67
2022/07/25 00:39:22;;;;;;;1.40;1.30;;;20.60;63.10;;;;;;4937817;28;20496;-67
2022/07/25 00:41:48;;;;;;;1.92;1.58;;;20.60;63.30;;;;;;4942300;28;20439;-67
2022/07/25 00:44:28;;;;;;;1.33;1.20;;;20.60;63.60;;;;;;4941027;29;20491;-67
2022/07/25 00:46:55;;;;;;;1.80;1.20;;;20.50;63.50;;;;;;4938298;29;20035;-67
2022/07/25 00:49:21;;;;;;;1.35;1.25;;;20.50;63.40;;;;;;4937768;28;20123;-70
2022/07/25 00:51:47;;;;;;;1.40;1.30;;;20.50;63.80;;;;;;4938690;29;20213;-70
2022/07/25 00:54:14;;;;;;;1.30;1.20;;;20.40;63.60;;;;;;4935277;29;20043;-70
2022/07/25 00:56:40;;;;;;;1.40;1.30;;;20.40;63.20;;;;;;4936286;29;20638;-70
2022/07/25 00:59:06;;;;;;;1.30;1.20;;;20.40;63.40;;;;;;4942040;29;20126;-69
2022/07/25 01:01:32;;;;;;;2.03;1.48;;;20.40;63.10;;;;;;4940970;28;20027;-69
2022/07/25 01:03:58;;;;;;;1.40;1.17;;;20.40;63.10;;;;;;4940228;29;20035;-69
2022/07/25 01:06:25;;;;;;;4.93;1.60;;;20.40;63.40;;;;;;4938469;29;20047;-69
2022/07/25 01:08:52;;;;;;;1.40;1.20;;;20.30;63.10;;;;;;4937949;28;20601;-70
2022/07/25 01:11:17;;;;;;;1.30;1.10;;;20.30;63.00;;;;;;4935499;28;20077;-69
2022/07/25 01:13:43;;;;;;;1.30;1.17;;;20.30;63.00;;;;;;4935341;29;20035;-69
2022/07/25 01:16:09;;;;;;;1.23;1.13;;;20.30;63.10;;;;;;4935982;29;20272;-70
2022/07/25 01:18:35;;;;;;;1.40;1.30;;;20.30;63.30;;;;;;4942180;28;20894;-70
2022/07/25 01:21:01;;;;;;;1.35;1.25;;;20.30;63.20;;;;;;4940223;28;20031;-69
2022/07/25 01:23:27;;;;;;;2.67;1.25;;;20.20;63.30;;;;;;4939160;29;20411;-69
2022/07/25 01:25:53;;;;;;;1.27;1.17;;;20.20;63.60;;;;;;4938394;28;20048;-69
2022/07/25 01:28:19;;;;;;;1.60;1.50;;;20.20;63.50;;;;;;4936448;29;20040;-69
2022/07/25 01:30:44;;;;;;;1.92;1.40;;;20.10;63.80;;;;;;4939911;28;20041;-70
2022/07/25 01:33:20;;;;;;;2.13;1.45;;;20.10;63.70;;;;;;4936304;29;20070;-69
2022/07/25 01:35:47;;;;;;;;;;;20.10;63.50;;;;;;4946986;28;20714;-70
2022/07/25 01:38:12;;;;;;;1.73;1.40;;;20.10;63.40;;;;;;4944534;28;20041;-69
2022/07/25 01:40:39;;;;;;;1.63;1.40;;;20.00;63.40;;;;;;4944562;28;20807;-69
2022/07/25 01:43:05;;;;;;;1.65;1.38;;;20.00;63.30;;;;;;4941011;28;20102;-69
2022/07/25 01:45:31;;;;;;;1.58;1.33;;;20.00;63.60;;;;;;4942336;29;20031;-69
2022/07/25 01:47:57;;;;;;;1.83;1.55;;;20.00;63.10;;;;;;4939903;28;20054;-70
2022/07/25 01:50:23;;;;;;;1.55;1.20;;;20.00;63.20;;;;;;4939536;28;20039;-70
2022/07/25 01:52:49;;;;;;;1.83;1.58;;;20.00;63.40;;;;;;4937661;29;20067;-70
2022/07/25 01:55:15;;;;;;;1.45;1.35;;;20.00;63.20;;;;;;4944060;29;20125;-70
2022/07/25 01:57:41;;;;;;;2.45;1.67;;;20.00;63.40;;;;;;4945113;28;20101;-70
2022/07/25 02:00:10;;;;;;;1.05;1.05;;;20.00;63.30;;;;;;4942743;28;20031;-69
2022/07/25 02:02:40;;;;;;;1.30;1.20;;;19.90;63.10;;;;;;4943105;28;20099;-70
2022/07/25 02:05:07;;;;;;;1.70;1.60;;;19.90;63.40;;;;;;4939189;28;20039;-69
2022/07/25 02:07:33;;;;;;;1.77;1.48;;;19.90;63.70;;;;;;4940263;28;20205;-69
2022/07/25 02:09:59;;;;;;;1.30;1.20;;;19.90;63.70;;;;;;4936477;28;20119;-69
2022/07/25 02:12:24;;;;;;;1.40;1.30;;;19.80;64.20;;;;;;4941122;29;20615;-70
2022/07/25 02:14:50;;;;;;;1.50;1.40;;;19.80;64.40;;;;;;4944959;28;20089;-69
2022/07/25 02:17:16;;;;;;;1.58;1.48;;;19.70;64.70;;;;;;4942122;28;20086;-69
2022/07/25 02:19:42;;;;;;;3.92;1.25;;;19.70;65.00;;;;;;4942558;28;20133;-69
2022/07/25 02:22:08;;;;;;;1.83;1.42;;;19.70;65.00;;;;;;4938970;28;20038;-70
2022/07/25 02:24:35;;;;;;;1.50;1.40;;;19.60;65.10;;;;;;4940325;28;20031;-69
2022/07/25 02:27:02;;;;;;;1.48;1.38;;;19.60;65.00;;;;;;4937240;29;20111;-69
2022/07/25 02:29:28;;;;;;;2.55;1.60;;;19.60;65.30;;;;;;4938208;28;20066;-70
2022/07/25 02:31:54;;;;;;;1.35;1.25;;;19.60;65.30;;;;;;4940455;29;20437;-70
2022/07/25 02:34:19;;;;;;;1.45;1.35;;;19.50;65.50;;;;;;4944327;29;20411;-69
2022/07/25 02:36:45;;;;;;;1.65;1.50;;;19.50;65.50;;;;;;4943699;28;20039;-70
2022/07/25 02:39:11;;;;;;;1.75;1.38;;;19.50;65.20;;;;;;4940677;28;20037;-69
2022/07/25 02:41:37;;;;;;;3.08;1.98;;;19.40;65.10;;;;;;4941009;28;20488;-69
2022/07/25 02:44:04;;;;;;;1.38;1.20;;;19.40;64.80;;;;;;4937160;28;20090;-69
2022/07/25 02:46:29;;;;;;;1.67;1.50;;;19.40;64.90;;;;;;4939535;29;20042;-70
2022/07/25 02:48:55;;;;;;;1.67;1.52;;;19.40;65.50;;;;;;4942226;28;20032;-69
2022/07/25 02:51:21;;;;;;;2.22;1.35;;;19.30;65.20;;;;;;4941388;28;20070;-69
2022/07/25 02:53:47;;;;;;;1.70;1.60;;;19.30;65.30;;;;;;4943702;28;20031;-70
2022/07/25 02:56:13;;;;;;;1.75;1.27;;;19.30;65.90;;;;;;4941764;28;20039;-69
2022/07/25 02:58:38;;;;;;;1.60;1.50;;;19.30;65.80;;;;;;4942009;29;20791;-69
2022/07/25 03:01:04;;;;;;;1.48;1.33;;;19.30;65.70;;;;;;4939171;28;20818;-69
2022/07/25 03:03:30;;;;;;;1.63;1.33;;;19.30;65.60;;;;;;4939440;29;20649;-70
2022/07/25 03:05:56;;;;;;;1.60;1.42;;;19.30;65.80;;;;;;4937175;29;20038;-70
2022/07/25 03:08:22;;;;;;;1.60;1.50;;;19.20;65.90;;;;;;4937882;29;20404;-70
2022/07/25 03:10:47;;;;;;;1.42;1.33;;;19.20;66.30;;;;;;4945755;28;20050;-70
2022/07/25 03:13:13;;;;;;;1.88;1.50;;;19.20;66.20;;;;;;4943910;29;20039;-69
2022/07/25 03:15:39;;;;;;;1.42;1.33;;;19.20;66.70;;;;;;4942076;28;20436;-69
2022/07/25 03:18:05;;;;;;;1.70;1.50;;;19.10;66.60;;;;;;4939695;29;20041;-70
2022/07/25 03:20:31;;;;;;;1.50;1.40;;;19.20;66.70;;;;;;4940388;28;20026;-70
2022/07/25 03:22:56;;;;;;;1.50;1.40;;;19.10;66.60;;;;;;4941979;28;20130;-70
2022/07/25 03:25:22;;;;;;;1.65;1.55;;;19.10;66.40;;;;;;4941499;28;20028;-69
2022/07/25 03:27:49;;;;;;;1.60;1.50;;;19.10;66.60;;;;;;4937358;29;20063;-69
2022/07/25 03:30:15;;;;;;;1.65;1.55;;;19.10;66.60;;;;;;4944227;28;20043;-69
2022/07/25 03:32:41;;;;;;;2.25;1.85;;;19.20;66.90;;;;;;4942231;28;20584;-69
2022/07/25 03:35:07;;;;;;;2.00;1.50;;;19.10;66.70;;;;;;4939979;28;20031;-70
2022/07/25 03:37:33;;;;;;;1.67;1.40;;;19.10;66.80;;;;;;4938624;29;20182;-70
2022/07/25 03:39:59;;;;;;;1.63;1.52;;;19.10;66.80;;;;;;4937850;28;20138;-69
2022/07/25 03:42:25;;;;;;;2.13;1.65;;;19.00;66.80;;;;;;4936950;29;20020;-70
2022/07/25 03:44:50;;;;;;;1.70;1.60;;;19.00;66.50;;;;;;4935827;29;20777;-69
2022/07/25 03:47:16;;;;;;;5.50;1.50;;;19.00;66.40;;;;;;4937898;29;20078;-69
2022/07/25 03:49:42;;;;;;;1.70;1.60;;;19.00;66.70;;;;;;4942054;28;20035;-70
2022/07/25 03:52:08;;;;;;;2.20;1.73;;;19.00;67.10;;;;;;4940900;28;20403;-70
2022/07/25 03:54:34;;;;;;;1.75;1.65;;;19.00;67.40;;;;;;4940987;28;20084;-69
2022/07/25 03:57:00;;;;;;;2.60;1.85;;;19.00;67.70;;;;;;4939477;28;20038;-69
2022/07/25 03:59:25;;;;;;;2.40;1.70;;;19.00;67.20;;;;;;4938170;28;20078;-70
2022/07/25 04:01:51;;;;;;;2.15;1.95;;;18.90;67.30;;;;;;4938073;28;20106;-70
2022/07/25 04:04:18;;;;;;;1.70;1.60;;;18.90;67.50;;;;;;4936745;29;20136;-69
2022/07/25 04:06:44;;;;;;;1.63;1.52;;;19.00;67.60;;;;;;4939965;29;20484;-70
2022/07/25 04:09:11;;;;;;;2.38;1.95;;;19.00;67.90;;;;;;4942170;29;20602;-69
2022/07/25 04:11:37;;;;;;;2.85;1.88;;;19.00;67.20;;;;;;4941888;28;20027;-69
2022/07/25 04:14:03;;;;;;;2.03;1.70;;;19.00;66.90;;;;;;4939369;28;20074;-69
2022/07/25 04:16:29;;;;;;;2.42;1.88;;;19.00;66.90;;;;;;4939132;29;20126;-70
2022/07/25 04:18:56;;;;;;;1.63;1.42;;;19.00;67.20;;;;;;4940336;28;20796;-69
2022/07/25 04:21:23;;;;;;;2.10;1.70;;;19.00;67.20;;;;;;4937001;28;20039;-70
2022/07/25 04:23:48;;;;;;;2.60;1.60;;;19.10;67.40;;;;;;4934996;28;20476;-70
2022/07/25 04:26:15;;;;;;;1.83;1.42;;;19.10;67.90;;;;;;4940827;29;20038;-70
2022/07/25 04:28:41;;;;;;;1.85;1.70;;;19.10;67.80;;;;;;4942673;28;20027;-70
2022/07/25 04:31:07;;;;;;;1.85;1.60;;;19.10;67.90;;;;;;4941194;28;20061;-69
2022/07/25 04:33:35;;;;;;;2.35;1.42;;;19.10;68.00;;;;;;4939680;28;20050;-69
2022/07/25 04:36:01;;;;;;;1.83;1.65;;;19.10;68.50;;;;;;4938749;29;20038;-69
2022/07/25 04:38:26;;;;;;;1.90;1.50;;;19.10;68.90;;;;;;4938068;28;20077;-70
2022/07/25 04:40:52;;;;;;;1.90;1.70;;;19.10;69.00;;;;;;4935111;28;20054;-70
2022/07/25 04:43:19;;;;;;;1.88;1.73;;;19.20;69.40;;;;;;4937566;29;20067;-69
2022/07/25 04:45:45;;;;;;;1.88;1.77;;;19.20;69.30;;;;;;4942811;28;20434;-70
2022/07/25 04:48:11;;;;;;;2.13;1.80;;;19.20;69.50;;;;;;4940065;28;20055;-69
2022/07/25 04:50:37;;;;;;;1.52;1.42;;;19.20;69.70;;;;;;4940005;28;20062;-69
2022/07/25 04:53:04;;;;;;;2.40;1.90;;;19.20;69.70;;;;;;4936485;28;20455;-69
2022/07/25 04:55:31;;;;;;;2.05;1.85;;;19.30;69.80;;;;;;4937343;29;20050;-69
2022/07/25 04:57:58;;;;;;;2.97;2.00;;;19.30;69.50;;;;;;4934384;28;20043;-70
2022/07/25 05:00:24;;;;;;;2.25;1.70;;;19.30;69.60;;;;;;4934398;28;20146;-69
2022/07/25 05:02:50;;;;;;;2.30;1.58;;;19.30;69.60;;;;;;4934532;28;20579;-69
2022/07/25 05:05:16;;;;;;;2.30;1.60;;;19.30;69.60;;;;;;4940950;28;20106;-69
2022/07/25 05:07:42;;;;;;;1.92;1.73;;;19.40;69.80;;;;;;4944261;28;20058;-69
2022/07/25 05:10:08;;;;;;;2.45;1.60;;;19.40;69.80;;;;;;4942595;28;20077;-70
2022/07/25 05:12:34;;;;;;;2.45;1.75;;;19.40;70.00;;;;;;4941776;29;20050;-70
2022/07/25 05:15:01;;;;;;;1.98;1.88;;;19.50;70.30;;;;;;4939626;28;20516;-70
2022/07/25 05:17:27;;;;;;;2.70;1.95;;;19.50;70.90;;;;;;4940103;29;20410;-70
2022/07/25 05:19:52;;;;;;;2.80;1.83;;;19.60;70.30;;;;;;4937344;28;20035;-70
2022/07/25 05:22:18;;;;;;;3.05;2.03;;;19.60;70.20;;;;;;4945189;29;20511;-70
2022/07/25 05:24:44;;;;;;;2.63;1.88;;;19.70;70.20;;;;;;4946761;28;20034;-70
2022/07/25 05:27:10;;;;;;;2.63;2.17;;;19.70;69.90;;;;;;4944578;29;20051;-69
2022/07/25 05:29:36;;;;;;;2.10;1.60;;;19.80;70.20;;;;;;4944259;28;20031;-70
2022/07/25 05:32:02;;;;;;;3.72;2.13;;;19.90;70.10;;;;;;4941070;28;20063;-70
2022/07/25 05:34:27;;;;;;;3.30;2.33;;;20.00;69.40;;;;;;4939859;29;20027;-70
2022/07/25 05:36:53;;;;;;;2.28;1.98;;;20.10;69.30;;;;;;4942030;29;20759;-70
2022/07/25 05:39:19;;;;;;;2.50;2.30;;;20.20;69.10;;;;;;4936652;29;20036;-70
2022/07/25 05:41:45;;;;;;;3.00;2.35;;;20.30;68.20;;;;;;4944549;28;20035;-70
2022/07/25 05:44:11;;;;;;;2.80;2.40;;;20.40;67.60;;;;;;4943001;29;20032;-69
2022/07/25 05:46:37;;;;;;;3.05;2.42;;;20.50;67.60;;;;;;4942704;28;20082;-69
2022/07/25 05:49:03;;;;;;;2.67;2.45;;;20.60;67.90;;;;;;4940449;28;20655;-69
2022/07/25 05:51:28;;;;;;;3.15;2.33;;;20.70;67.30;;;;;;4940830;28;20035;-70
2022/07/25 05:53:54;;;;;;;3.03;2.72;;;20.80;66.10;;;;;;4939143;29;20031;-70
2022/07/25 05:56:20;;;;;;;4.18;2.50;;;20.90;65.80;;;;;;4938445;29;20062;-69
2022/07/25 05:58:46;;;;;;;6.90;2.63;;;21.00;63.90;;;;;;4938839;28;20085;-70
2022/07/25 06:01:13;;;;;;;5.05;2.53;;;21.20;63.60;;;;;;4945296;28;20035;-69
2022/07/25 06:03:40;;;;;;;2.55;2.35;;;21.30;63.20;;;;;;4942894;29;20060;-70
2022/07/25 06:06:07;;;;;;;3.00;2.70;;;21.50;63.20;;;;;;4942331;29;20031;-70
2022/07/25 06:08:34;;;;;;;5.53;3.13;;;21.60;62.00;;;;;;4942663;28;20581;-70
2022/07/25 06:11:02;;;;;;;3.22;2.67;;;21.70;62.10;;;;;;4940040;28;21025;-69
2022/07/25 06:13:29;;;;;;;3.25;2.60;;;21.80;61.80;;;;;;4939526;29;20027;-70
2022/07/25 06:15:55;;;;;;;4.60;3.30;;;21.90;61.50;;;;;;4936797;29;20054;-70
2022/07/25 06:18:21;;;;;;;4.43;3.13;;;22.00;61.70;;;;;;4943643;28;20111;-70
2022/07/25 06:20:47;;;;;;;3.53;2.60;;;22.20;61.50;;;;;;4944687;28;20031;-70
2022/07/25 06:23:14;;;;;;;5.20;2.92;;;22.30;60.60;;;;;;4942403;29;20027;-69
2022/07/25 06:25:40;;;;;;;3.97;2.92;;;22.40;60.30;;;;;;4943205;28;20070;-70
2022/07/25 06:28:05;;;;;;;3.38;3.08;;;22.50;60.40;;;;;;4939911;28;20065;-70
2022/07/25 06:30:31;;;;;;;3.47;3.17;;;22.60;60.30;;;;;;4943329;28;20536;-70
2022/07/25 06:32:57;;;;;;;3.35;3.00;;;22.70;59.80;;;;;;4937095;28;20031;-70
2022/07/25 06:35:23;;;;;;;7.15;3.25;;;22.80;60.10;;;;;;4937370;29;20038;-70
2022/07/25 06:37:49;;;;;;;4.43;3.70;;;23.00;60.30;;;;;;4941577;29;20062;-70
2022/07/25 06:40:15;;;;;;;8.55;3.63;;;23.10;59.60;;;;;;4943621;28;20859;-70
2022/07/25 06:42:45;;;;;;;11.18;3.72;;;23.10;59.30;;;;;;4942923;28;20027;-70
2022/07/25 06:45:12;;;;;;;4.57;3.55;;;23.30;59.40;;;;;;4940237;29;20147;-70
2022/07/25 06:47:39;;;;;;;4.45;3.65;;;23.40;59.20;;;;;;4940931;28;20039;-69
2022/07/25 06:50:06;;;;;;;4.90;3.83;;;23.50;58.90;;;;;;4937301;28;20541;-70
2022/07/25 06:52:33;;;;;;;4.57;3.50;;;23.60;58.60;;;;;;4938519;29;20058;-70
2022/07/25 06:54:58;;;;;;;4.70;3.90;;;23.70;58.30;;;;;;4935182;28;20138;-70
2022/07/25 06:57:24;;;;;;;4.38;3.95;;;23.80;58.60;;;;;;4943411;29;20519;-70
2022/07/25 06:59:50;;;;;;;4.55;4.07;;;23.90;58.30;;;;;;4943620;28;20047;-70
2022/07/25 07:02:16;;;;;;;5.80;3.92;;;23.90;57.90;;;;;;4940272;28;20043;-70
2022/07/25 07:04:42;;;;;;;7.53;3.90;;;24.00;58.00;;;;;;4941320;28;20075;-70
2022/07/25 07:07:07;;;;;;;4.50;3.97;;;24.00;57.70;;;;;;4937964;28;20120;-69
2022/07/25 07:09:33;;;;;;;5.78;4.03;;;24.20;57.90;;;;;;4939008;28;20856;-70
2022/07/25 07:11:59;;;;;;;5.88;3.83;;;24.30;57.70;;;;;;4935207;28;20553;-70
2022/07/25 07:14:25;;;;;;;4.68;4.10;;;24.40;57.40;;;;;;4936202;29;20159;-70
2022/07/25 07:16:50;;;;;;;5.28;4.38;;;24.50;57.20;;;;;;4943908;28;20043;-70
2022/07/25 07:19:16;;;;;;;5.05;4.13;;;24.60;57.40;;;;;;4941021;28;20503;-70
2022/07/25 07:21:42;;;;;;;6.60;4.60;;;24.80;57.50;;;;;;4941200;28;20031;-70
2022/07/25 07:24:09;;;;;;;4.22;3.83;;;24.90;57.10;;;;;;4938242;29;20040;-70
2022/07/25 07:26:34;;;;;;;5.43;4.25;;;25.00;56.30;;;;;;4939715;28;20094;-70
2022/07/25 07:29:01;;;;;;;4.78;4.07;;;25.10;56.30;;;;;;4935084;28;20039;-69
2022/07/25 07:31:27;;;;;;;5.43;4.60;;;25.20;56.10;;;;;;4939773;28;20043;-70
2022/07/25 07:33:53;;;;;;;4.70;4.10;;;25.30;55.70;;;;;;4942702;29;20526;-70
2022/07/25 07:36:19;;;;;;;5.93;4.35;;;25.40;56.00;;;;;;4942606;28;20038;-70
2022/07/25 07:38:45;;;;;;;5.18;4.35;;;25.40;55.80;;;;;;4943566;28;20066;-70
2022/07/25 07:41:11;;;;;;;5.78;4.22;;;25.50;56.00;;;;;;4941085;28;20058;-70
2022/07/25 07:43:37;;;;;;;5.68;4.55;;;25.60;55.70;;;;;;4941440;28;20035;-70
2022/07/25 07:46:03;;;;;;;4.95;4.45;;;25.80;55.20;;;;;;4937179;29;20627;-70
2022/07/25 07:48:29;;;;;;;5.78;4.10;;;25.90;55.30;;;;;;4937473;29;20046;-71
2022/07/25 07:50:56;;;;;;;4.45;4.05;;;26.00;54.90;;;;;;4939911;28;20061;-70
2022/07/25 07:53:21;;;;;;;5.43;4.00;;;26.10;55.10;;;;;;4942208;29;20118;-70
2022/07/25 07:55:53;;;;;;;5.35;4.40;;;26.20;55.20;;;;;;4942459;28;20027;-70
2022/07/25 07:58:20;;;;;;;5.97;4.30;;;26.30;54.80;;;;;;4939793;28;20487;-70
2022/07/25 08:00:47;;;;;;;6.20;4.53;;;26.40;54.90;;;;;;4940268;28;20046;-70
2022/07/25 08:03:20;;;;;;;4.53;4.10;;;26.50;54.60;;;;;;4936614;28;20056;-70
2022/07/25 08:05:47;;;;;;;6.72;5.13;;;26.70;54.40;;;;;;4938949;29;20492;-70
2022/07/25 08:08:14;;;;;;;6.85;4.50;;;26.80;54.10;;;;;;4934373;29;20106;-70
2022/07/25 08:10:42;;;;;;;5.55;4.53;;;26.90;53.90;;;;;;4936120;28;20162;-70
2022/07/25 08:13:20;;;;;;;5.95;4.90;;;27.00;53.80;;;;;;4942984;28;20066;-70
2022/07/25 08:15:48;;;;;;;6.72;4.60;;;27.10;53.90;;;;;;4943981;28;20162;-70
2022/07/25 08:18:14;;;;;;;7.15;4.72;;;27.20;54.00;;;;;;4946139;28;20460;-70
2022/07/25 08:20:40;;;;;;;5.70;4.60;;;27.40;53.10;;;;;;4939730;28;20082;-68
2022/07/25 08:23:09;;;;;;;11.45;4.80;;;27.50;52.70;;;;;;4936153;28;20794;-69
2022/07/25 08:25:36;;;;;;;5.38;4.63;;;27.70;52.60;;;;;;4937633;28;20070;-70
2022/07/25 08:28:03;;;;;;;5.35;4.85;;;27.80;52.70;;;;;;4933237;28;20039;-70
2022/07/25 08:30:28;;;;;;;7.13;5.15;;;27.80;52.40;;;;;;4938657;28;20031;-71
2022/07/25 08:32:58;;;;;;;8.93;5.07;;;27.90;51.80;;;;;;4941573;28;20035;-69
2022/07/25 08:35:26;;;;;;;6.85;5.00;;;28.00;51.90;;;;;;4939392;29;20067;-70
2022/07/25 08:37:52;;;;;;;5.05;4.50;;;28.10;52.10;;;;;;4937871;29;20046;-70
2022/07/25 08:40:20;;;;;;;7.80;4.88;;;28.30;51.40;;;;;;4936194;28;20036;-70
2022/07/25 08:42:46;;;;;;;7.40;4.65;;;28.50;51.20;;;;;;4936763;29;20050;-70
2022/07/25 08:45:18;;;;;;;5.28;4.78;;;28.50;51.10;;;;;;4933977;29;20062;-70
2022/07/25 08:47:45;;;;;;;6.35;5.47;;;28.70;51.20;;;;;;4940348;29;20041;-70
2022/07/25 08:50:13;;;;;;;5.85;4.90;;;28.90;50.40;;;;;;4939622;28;20043;-70
2022/07/25 08:52:39;;;;;;;6.43;5.30;;;29.00;50.10;;;;;;4941393;28;20102;-70
2022/07/25 08:55:08;;;;;;;8.23;5.32;;;29.10;49.50;;;;;;4939172;29;20567;-70
2022/07/25 08:57:36;;;;;;;6.13;5.45;;;29.10;49.70;;;;;;4938971;29;20035;-70
2022/07/25 09:00:04;;;;;;;7.40;5.50;;;29.10;49.40;;;;;;4936183;28;20113;-70
2022/07/25 09:02:29;;;;;;;6.70;5.85;;;29.20;49.70;;;;;;4936517;29;20035;-70
2022/07/25 09:04:57;;;;;;;6.60;5.30;;;29.40;48.80;;;;;;4934024;28;20050;-70
2022/07/25 09:07:37;;;;;;;8.77;5.30;;;29.40;48.80;;;;;;4933825;29;20039;-70
2022/07/25 09:10:16;;;;;;;8.13;5.75;;;29.40;49.80;;;;;;4938288;28;20744;-70
2022/07/25 09:13:00;;;;;;;6.40;5.00;;;29.60;49.60;;;;;;4935651;29;20035;-70
2022/07/25 09:15:51;;;;;;;10.00;5.95;;;29.80;49.50;;;;;;4938585;29;20074;-70
2022/07/25 09:18:21;;;;;;;6.90;5.50;;;30.00;49.70;;;;;;4935767;29;20099;-70
2022/07/25 09:20:50;;;;;;;6.13;5.38;;;30.30;48.80;;;;;;4936430;28;20109;-70
2022/07/25 09:23:33;;;;;;;7.72;5.72;;;30.40;47.80;;;;;;4933463;29;20032;-70
2022/07/25 09:26:08;;;;;;;7.65;5.72;;;30.50;47.30;;;;;;4932162;28;20059;-70
2022/07/25 09:28:44;;;;;;;7.60;5.72;;;30.50;47.80;;;;;;4932827;29;20027;-71
2022/07/25 09:31:11;;;;;;;6.43;5.55;;;30.60;47.60;;;;;;4938589;28;20039;-70
2022/07/25 09:33:46;;;;;;;6.72;5.78;;;30.60;47.00;;;;;;4936809;28;20843;-70
2022/07/25 09:36:13;;;;;;;6.90;5.60;;;30.70;47.20;;;;;;4934665;29;20039;-70
2022/07/25 09:38:39;;;;;;;6.20;5.57;;;30.80;47.60;;;;;;4936750;28;20047;-70
2022/07/25 09:41:04;;;;;;;11.15;6.03;;;31.00;46.70;;;;;;4932815;28;20476;-70
2022/07/25 09:43:37;;;;;;;7.80;5.78;;;31.00;46.70;;;;;;4933511;29;20110;-70
2022/07/25 09:46:03;;;;;;;8.88;5.55;;;31.10;46.70;;;;;;4933233;29;20027;-70
2022/07/25 09:48:30;;;;;;;6.85;5.72;;;31.10;46.20;;;;;;4939888;29;20028;-70
2022/07/25 09:50:56;;;;;;;8.13;5.93;;;31.10;46.60;;;;;;4938863;29;20030;-70
2022/07/25 09:53:23;;;;;;;6.50;5.90;;;31.20;46.60;;;;;;4940542;28;20131;-70
2022/07/25 09:55:49;;;;;;;8.35;5.93;;;31.30;46.00;;;;;;4943698;29;20031;-70
2022/07/25 09:58:14;;;;;;;8.43;5.90;;;31.50;45.70;;;;;;4940626;29;20571;-70
2022/07/25 10:00:41;;;;;;;9.80;5.80;;;31.50;45.30;;;;;;4946321;28;20110;-71
2022/07/25 10:03:16;;;;;;;6.45;5.85;;;31.50;45.50;;;;;;4934969;29;20559;-70
2022/07/25 10:06:00;;;;;;;6.47;5.75;;;31.50;45.40;;;;;;4944993;29;20089;-70
2022/07/25 10:08:27;;;;;;;8.25;5.90;;;31.60;45.50;;;;;;4943047;29;20126;-70
2022/07/25 10:10:54;;;;;;;6.50;5.90;;;31.80;45.40;;;;;;4935645;28;20028;-70
2022/07/25 10:13:33;;;;;;;8.43;5.72;;;32.00;44.80;;;;;;4943672;28;20110;-70
2022/07/25 10:15:59;;;;;;;7.00;5.55;;;32.00;44.20;;;;;;4938642;28;20555;-71
2022/07/25 10:18:27;;;;;;;6.88;6.13;;;32.00;44.40;;;;;;4938632;29;20041;-70
2022/07/25 10:21:09;;;;;;;6.05;5.43;;;32.00;45.00;;;;;;4935949;28;20623;-70
2022/07/25 10:23:34;;;;;;;8.60;6.53;;;32.10;44.40;;;;;;4937407;29;20031;-70
2022/07/25 10:26:12;;;;;;;8.38;5.80;;;32.20;44.00;;;;;;4944714;29;20054;-70
2022/07/25 10:28:40;;;;;;;6.75;5.68;;;32.30;43.80;;;;;;4941846;29;20042;-70
2022/07/25 10:31:38;;;;;;;8.50;5.20;;;32.30;43.50;;;;;;4942865;28;20039;-70
2022/07/25 10:34:09;;;;;;;6.63;5.93;;;32.30;42.70;;;;;;4938667;29;20750;-70
2022/07/25 10:36:46;;;;;;;10.70;5.90;;;32.30;43.50;;;;;;4939223;29;20071;-70
2022/07/25 10:39:15;;;;;;;9.93;6.45;;;32.40;43.00;;;;;;4937243;29;20040;-71
2022/07/25 10:41:48;;;;;;;5.88;5.38;;;32.50;42.30;;;;;;4938235;28;20035;-70
2022/07/25 10:44:14;;;;;;;5.55;5.05;;;32.60;42.20;;;;;;4944864;28;20488;-70
2022/07/25 10:46:44;;;;;;;7.40;5.05;;;32.70;42.10;;;;;;4944078;28;20094;-70
2022/07/25 10:49:24;;;;;;;6.20;5.13;;;32.90;42.60;;;;;;4941471;28;20038;-70
2022/07/25 10:52:01;;;;;;;6.18;5.57;;;33.10;41.80;;;;;;4935166;29;20035;-70
2022/07/25 10:54:34;;;;;;;7.30;5.72;;;33.20;41.00;;;;;;4940446;28;20027;-70
2022/07/25 10:57:00;;;;;;;6.45;5.30;;;33.20;41.30;;;;;;4936494;29;20082;-70
2022/07/25 10:59:27;;;;;;;5.72;5.18;;;33.20;39.90;;;;;;4943529;28;20135;-70
2022/07/25 11:01:53;;;;;;;6.70;5.22;;;33.10;39.90;;;;;;4940693;28;20038;-70
2022/07/25 11:04:18;;;;;;;5.32;4.55;;;33.00;40.20;;;;;;4942561;28;20036;-70
2022/07/25 11:06:45;;;;;;;5.72;5.18;;;33.10;40.20;;;;;;4942974;28;20487;-70
2022/07/25 11:09:16;;;;;;;5.55;5.05;;;33.30;40.00;;;;;;4940196;28;20036;-70
2022/07/25 11:11:48;;;;;;;7.50;5.25;;;33.40;39.60;;;;;;4939791;28;20039;-70
2022/07/25 11:14:19;;;;;;;6.35;5.32;;;33.30;39.40;;;;;;4937497;29;20058;-70
2022/07/25 11:16:46;;;;;;;6.30;5.43;;;33.30;39.80;;;;;;4936359;29;20031;-70
2022/07/25 11:19:30;;;;;;;5.53;5.03;;;33.40;39.40;;;;;;4935258;29;20036;-71
2022/07/25 11:22:03;;;;;;;6.28;4.78;;;33.40;39.10;;;;;;4944240;28;20167;-70
2022/07/25 11:24:43;;;;;;;8.30;5.13;;;33.30;40.50;;;;;;4943005;29;20023;-70
2022/07/25 11:27:11;;;;;;;6.07;5.30;;;33.30;41.00;;;;;;4940313;29;20043;-71
2022/07/25 11:29:37;;;;;;;5.90;5.22;;;33.20;41.20;;;;;;4940911;28;20372;-71
2022/07/25 11:32:10;;;;;;;6.05;5.45;;;33.20;41.40;;;;;;4939387;28;20039;-71
2022/07/25 11:34:40;;;;;;;7.10;5.13;;;33.20;39.20;;;;;;4937226;29;20035;-70
2022/07/25 11:37:08;;;;;;;6.75;5.78;;;33.10;39.30;;;;;;4933995;29;20882;-71
2022/07/25 11:39:36;;;;;;;6.07;5.00;;;33.00;39.00;;;;;;4940488;28;20033;-70
2022/07/25 11:42:06;;;;;;;6.03;5.35;;;33.20;39.60;;;;;;4941950;28;20705;-70
2022/07/25 11:44:40;;;;;;;5.78;5.18;;;33.30;39.30;;;;;;4941660;29;20499;-71
2022/07/25 11:47:21;;;;;;;11.50;5.30;;;33.40;38.70;;;;;;4940756;29;20415;-71
2022/07/25 11:49:48;;;;;;;5.85;5.25;;;33.60;38.60;;;;;;4937521;28;20279;-70
2022/07/25 11:52:20;;;;;;;7.80;5.18;;;33.70;37.80;;;;;;4936080;29;20036;-70
2022/07/25 11:54:54;;;;;;;6.60;4.97;;;33.60;37.30;;;;;;4936323;29;20035;-70
2022/07/25 11:57:25;;;;;;;6.53;4.90;;;33.60;37.50;;;;;;4934758;29;20051;-70
2022/07/25 11:59:51;;;;;;;5.20;4.70;;;33.60;37.60;;;;;;4943691;28;20081;-70
2022/07/25 12:02:32;;;;;;;5.30;4.80;;;33.60;37.60;;;;;;4940307;28;20032;-70
2022/07/25 12:05:07;;;;;;;5.65;5.15;;;33.60;37.80;;;;;;4939044;29;20050;-71
2022/07/25 12:07:45;;;;;;;;;;;33.70;37.70;;;;;;4939989;29;20027;-70
2022/07/25 12:10:15;;;;;;;6.50;5.05;;;33.90;37.10;;;;;;4936744;28;19914;-70
2022/07/25 12:12:49;;;;;;;7.05;4.97;;;34.00;37.50;;;;;;4938760;29;20058;-71
2022/07/25 12:15:18;;;;;;;5.68;4.68;;;34.00;37.50;;;;;;4939766;29;20046;-71
2022/07/25 12:17:45;;;;;;;6.03;5.03;;;34.10;37.40;;;;;;4944391;28;20032;-71
2022/07/25 12:20:16;;;;;;;5.47;4.95;;;34.20;36.90;;;;;;4941269;28;20034;-70
2022/07/25 12:22:42;;;;;;;5.28;4.80;;;34.30;36.50;;;;;;4940312;28;20054;-70
2022/07/25 12:25:09;;;;;;;6.93;5.20;;;34.30;36.60;;;;;;4940266;28;20054;-71
2022/07/25 12:27:35;;;;;;;7.75;5.07;;;34.20;37.00;;;;;;4939088;28;20811;-71
2022/07/25 12:30:01;;;;;;;6.60;4.95;;;34.20;37.00;;;;;;4938506;28;20037;-71
2022/07/25 12:32:27;;;;;;;7.47;5.05;;;34.30;37.20;;;;;;4936125;28;20027;-70
2022/07/25 12:34:52;;;;;;;7.35;5.25;;;34.40;36.60;;;;;;4935934;28;20692;-71
2022/07/25 12:37:20;;;;;;;7.32;4.97;;;34.50;37.20;;;;;;4941665;28;20827;-71
2022/07/25 12:39:46;;;;;;;7.60;4.93;;;34.40;35.90;;;;;;4941531;28;20023;-71
2022/07/25 12:42:12;;;;;;;5.75;4.82;;;34.30;36.20;;;;;;4938216;28;20047;-70
2022/07/25 12:44:38;;;;;;;8.52;4.82;;;34.20;37.10;;;;;;4939430;29;20031;-70
2022/07/25 12:47:04;;;;;;;6.72;4.55;;;34.20;36.30;;;;;;4936467;28;20039;-70
2022/07/25 12:49:30;;;;;;;8.90;4.88;;;34.10;36.60;;;;;;4940102;28;20035;-70